Terminal Aerodrome Forecast
Issued by NWS Wilmington, NC

Home | Current Version | Previous Version | Text Only | Print | Product List | Glossary On
Versions: 1 2 3 4 5 6 7 8 9 10 11 12 13 14 15 16 17
351
FTUS42 KILM 222345 CCB
TAFILM
TAF COR
KILM 222345Z 2300/2324 12003KT P6SM VCSH SCT020 BKN040
     FM230600 17008KT 5SM BR VCSH BKN009
     FM230900 17009KT 4SM SHRA BKN006 BKN020 WS015/19040KT
      TEMPO 2310/2314 2SM TSRA BKN006CB
     FM231600 22018G25KT P6SM VCSH BKN020
     FM232000 24014G24KT P6SM SCT025=

USA.gov is the U.S. government's official web portal to all federal, state and local government web resources and services.